Flight Track Log - Related Links

Times and Time Zones

All times are in EDT time to prevent confusion due to time zone crossing. See the N789EX flight status page for this flight to view local times or setup timezone preferences in your user account.

Time Position Orientation Groundspeed Altitude Reporting Facility
EDT Latitude Longitude Course Direction KTS MPH feet Rate Location/Type
Wed 03:55:42 PM 47.1908 -118.9628 301° West 263 303 9,300  Level Seattle Center
Wed 03:56:43 PM 47.2306 -119.0589 301° West 274 315 10,000 1,426 Climbing Seattle Center
Wed 03:57:44 PM 47.2792 -119.1800 301° West 343 395 12,200 2,656 Climbing Seattle Center
Wed 03:58:45 PM 47.3356 -119.3233 300° West 379 436 15,400 1,820 Climbing Seattle Center
Wed 03:59:46 PM 47.3792 -119.4672 294° West 386 444 15,900 87 Climbing Seattle Center
Wed 04:05:40 PM 47.6237 -120.3390 292° West 386 444 16,000 16 Climbing FlightAware ADS-B
Wed 04:06:11 PM 47.6441 -120.4130 292° West 386 444 16,000 -91 Level FlightAware ADS-B
Wed 04:06:46 PM 47.6681 -120.5000 292° West 389 448 15,900  Descending FlightAware ADS-B
Wed 04:07:16 PM 47.6883 -120.5750 292° West 388 447 16,000  Climbing FlightAware ADS-B
Wed 04:07:49 PM 47.7099 -120.6540 292° West 390 449 15,900 -95 Descending FlightAware ADS-B
Wed 04:08:19 PM 47.7307 -120.7310 292° West 387 445 15,900  Level FlightAware ADS-B
Wed 04:08:50 PM 47.7507 -120.8050 292° West 385 443 15,900  Level FlightAware ADS-B
Wed 04:09:20 PM 47.7705 -120.8790 292° West 381 438 15,900  Level FlightAware ADS-B
Wed 04:09:50 PM 47.7903 -120.9520 292° West 382 440 15,900  Level FlightAware ADS-B
Wed 04:10:20 PM 47.8100 -121.0260 292° West 385 443 15,900  Level FlightAware ADS-B
Wed 04:10:50 PM 47.8298 -121.1000 292° West 388 447 15,900  Level FlightAware ADS-B
Wed 04:11:09 PM 47.8417 -121.1460 291° West 387 445 15,900  Level FlightAware ADS-B
Wed 04:11:18 PM 47.8472 -121.1700 287° West 382 440 15,900  Level FlightAware ADS-B
Wed 04:11:32 PM 47.8530 -121.2030 283° West 365 420 15,900 -600 Level FlightAware ADS-B
Wed 04:11:48 PM 47.8574 -121.2410 278° West 349 402 15,600 -1,636 Descending FlightAware ADS-B
Wed 04:12:16 PM 47.8617 -121.3080 276° West 344 396 14,700 -2,172 Descending FlightAware ADS-B
Wed 04:12:46 PM 47.8664 -121.3790 275° West 341 392 13,500 -2,339 Descending FlightAware ADS-B
Wed 04:13:15 PM 47.8706 -121.4460 275° West 333 383 12,400 -1,800 Descending FlightAware ADS-B
Wed 04:13:46 PM 47.8747 -121.5140 275° West 317 365 11,700 -984 Descending FlightAware ADS-B
Wed 04:14:16 PM 47.8788 -121.5760 275° West 293 337 11,400 -500 Descending FlightAware ADS-B
Wed 04:14:46 PM 47.8824 -121.6340 275° West 269 310 11,200 -545 Descending FlightAware ADS-B
Wed 04:14:49 PM 47.8825 -121.6362 275° West 266 306 11,100 -900 Descending FlightAware ADS-B (CYVR)
Wed 04:15:06 PM 47.8844 -121.6700 274° West 258 297 10,900 -522 Descending FlightAware ADS-B
Wed 04:15:12 PM 47.8844 -121.6800 268° West 256 295 10,900  Level FlightAware ADS-B
Wed 04:15:17 PM 47.8836 -121.6894 262° West 254 292 10,900  Level FlightAware ADS-B (CYVR)
Wed 04:15:19 PM 47.8833 -121.6920 260° West 253 291 10,900  Level FlightAware ADS-B
Wed 04:15:39 PM 47.8777 -121.7260 256° West 254 292 10,900  Level FlightAware ADS-B
Wed 04:16:09 PM 47.8694 -121.7780 257° West 254 292 10,900  Level FlightAware ADS-B
Wed 04:16:39 PM 47.8616 -121.8290 257° West 253 291 10,900 -211 Level FlightAware ADS-B
Wed 04:17:06 PM 47.8547 -121.8750 257° West 252 290 10,700 -842 Descending FlightAware ADS-B
Wed 04:17:36 PM 47.8470 -121.9260 257° West 251 289 10,100 -1,174 Descending FlightAware ADS-B
Wed 04:17:52 PM 47.8431 -121.9520 258° West 252 290 9,800 -1,111 Descending FlightAware ADS-B
Wed 04:18:03 PM 47.8404 -121.9700 258° West 253 291 9,600 -1,154 Descending FlightAware ADS-B
Wed 04:18:18 PM 47.8368 -121.9950 258° West 248 285 9,300 -1,548 Descending FlightAware ADS-B
Wed 04:18:34 PM 47.8330 -122.0220 258° West 247 284 8,800 -1,742 Descending FlightAware ADS-B
Wed 04:18:49 PM 47.8293 -122.0470 258° West 249 287 8,400 -1,800 Descending FlightAware ADS-B
Wed 04:19:04 PM 47.8254 -122.0730 258° West 250 288 7,900 -1,636 Descending FlightAware ADS-B
Wed 04:19:11 PM 47.8238 -122.0840 257° West 250 288 7,800 -1,091 Descending FlightAware ADS-B
Wed 04:19:15 PM 47.8226 -122.0900 254° West 250 288 7,700 -2,000 Descending FlightAware ADS-B
Wed 04:19:17 PM 47.8218 -122.0939 252° West 248 285 7,600 -1,200 Descending FlightAware ADS-B (CYVR)
Wed 04:19:20 PM 47.8206 -122.0990 250° West 248 285 7,600 -1,667 Level FlightAware ADS-B
Wed 04:19:35 PM 47.8140 -122.1230 247° West 248 285 7,100 -1,875 Descending FlightAware ADS-B
Wed 04:19:36 PM 47.8139 -122.1240 247° West 249 287 7,100 -1,500 Level FlightAware ADS-B (CYVR)
Wed 04:19:51 PM 47.8073 -122.1470 247° West 248 285 6,700 -1,400 Descending FlightAware ADS-B
Wed 04:20:06 PM 47.8005 -122.1700 247° West 246 283 6,400 -1,400 Descending FlightAware ADS-B
Wed 04:20:21 PM 47.7935 -122.1940 246° West 245 282 6,000 -1,500 Descending FlightAware ADS-B
Wed 04:20:34 PM 47.7877 -122.2140 247° West 241 277 5,700 -1,500 Descending FlightAware ADS-B
Wed 04:20:49 PM 47.7811 -122.2370 247° West 239 275 5,300 -1,400 Descending FlightAware ADS-B
Wed 04:21:04 PM 47.7744 -122.2590 246° West 230 265 5,000 -1,091 Descending FlightAware ADS-B
Wed 04:21:22 PM 47.7672 -122.2840 247° West 217 250 4,700 -1,241 Descending FlightAware ADS-B
Wed 04:21:33 PM 47.7626 -122.3000 246° West 212 244 4,400 -1,778 Descending FlightAware ADS-B
Wed 04:21:49 PM 47.7564 -122.3200 246° West 209 241 3,900 -2,129 Descending FlightAware ADS-B
Wed 04:22:04 PM 47.7504 -122.3400 246° West 209 241 3,300 -2,143 Descending FlightAware ADS-B
Wed 04:22:17 PM 47.7454 -122.3570 247° West 211 243 2,900 -1,909 Descending FlightAware ADS-B
Wed 04:22:26 PM 47.7417 -122.3700 247° West 215 247 2,600 -727 Descending FlightAware ADS-B
Wed 04:23:23 PM 47.7173 -122.4380 247° West 212 244 2,100 -455 Descending FlightAware ADS-B
Wed 04:23:32 PM 47.7098 -122.4400 188° South 181 208 2,100  Level FlightAware ADS-B
Wed 04:23:36 PM 47.7065 -122.4400 178° South 178 205 2,100  Level FlightAware ADS-B
Wed 04:24:10 PM 47.6792 -122.4290 153° Southeast 179 206 2,100  Level FlightAware ADS-B
Wed 04:24:29 PM 47.6655 -122.4180 153° Southeast 179 206 2,100  Level FlightAware ADS-B
Wed 04:24:46 PM 47.6539 -122.4080 150° Southeast 178 205 2,100  Level FlightAware ADS-B
Wed 04:24:56 PM 47.6467 -122.4020 149° Southeast 177 204 2,100  Level FlightAware ADS-B
Wed 04:25:03 PM 47.6414 -122.3970 149° Southeast 175 201 2,100 -286 Level FlightAware ADS-B
Wed 04:25:17 PM 47.6322 -122.3890 150° Southeast 164 189 2,000 -400 Descending FlightAware ADS-B
Wed 04:25:33 PM 47.6221 -122.3800 150° Southeast 158 182 1,900 -811 Descending FlightAware ADS-B
Wed 04:25:54 PM 47.6085 -122.3690 150° Southeast 155 178 1,500 -968 Descending FlightAware ADS-B
Wed 04:26:04 PM 47.6025 -122.3630 150° Southeast 153 176 1,400 -667 Descending FlightAware ADS-B
Wed 04:26:57 PM 47.5744 -122.3419 150° Southeast 140 161 800 -686 Descending Seattle Center
Wed 04:27:14 PM 47.5644 -122.3319 146° Southeast 139 160 600 -689 Descending Seattle Center
Wed 04:27:58 PM 47.5408 -122.3144 153° Southeast 131 151 100 -492 Descending Seattle Center
Wed 04:28:15 PM 47.5336 -122.3056 140° Southeast 138 159 100  Level Seattle Center
Wed 04:30:00 PM 47.5300 -122.3020 247° West  Level Estimated

Login

Don't have an account? Register now (free) for customized features, flight alerts, and more!